createdAt,value
2023-04-16T00:01:45.731Z,0.80
2023-04-16T00:04:12.582Z,0.70
2023-04-16T00:06:39.286Z,0.70
2023-04-16T00:09:05.930Z,0.50
2023-04-16T00:11:32.553Z,1.00
2023-04-16T00:13:59.244Z,1.60
2023-04-16T00:16:25.963Z,1.13
2023-04-16T00:18:52.665Z,0.82
2023-04-16T00:21:19.239Z,1.27
2023-04-16T00:23:46.455Z,0.82
2023-04-16T00:26:13.072Z,1.25
2023-04-16T00:28:42.133Z,0.50
2023-04-16T00:31:08.905Z,0.85
2023-04-16T00:33:35.620Z,0.40
2023-04-16T00:36:02.198Z,0.60
2023-04-16T00:38:30.439Z,0.57
2023-04-16T00:40:59.858Z,0.60
2023-04-16T00:43:27.329Z,0.75
2023-04-16T00:45:56.642Z,0.80
2023-04-16T00:48:23.612Z,0.80
2023-04-16T00:50:50.656Z,0.52
2023-04-16T00:53:17.476Z,0.77
2023-04-16T00:55:44.551Z,0.80
2023-04-16T00:58:11.214Z,0.75
2023-04-16T01:00:37.863Z,1.00
2023-04-16T01:03:05.350Z,0.95
2023-04-16T01:05:32.052Z,0.77
2023-04-16T01:08:00.848Z,0.90
2023-04-16T01:10:27.500Z,0.90
2023-04-16T01:12:54.364Z,0.55
2023-04-16T01:15:21.023Z,0.45
2023-04-16T01:17:47.769Z,0.82
2023-04-16T01:20:14.612Z,0.65
2023-04-16T01:22:41.229Z,0.50
2023-04-16T01:25:07.949Z,0.50
2023-04-16T01:27:34.563Z,0.40
2023-04-16T01:30:01.137Z,0.40
2023-04-16T01:32:39.365Z,0.47
2023-04-16T01:35:06.161Z,0.35
2023-04-16T01:37:32.951Z,0.50
2023-04-16T01:39:59.596Z,0.60
2023-04-16T01:42:26.172Z,1.05
2023-04-16T01:44:52.797Z,0.73
2023-04-16T01:47:19.507Z,0.40
2023-04-16T01:49:48.171Z,0.68
2023-04-16T01:52:14.794Z,0.55
2023-04-16T01:54:41.367Z,0.60
2023-04-16T01:57:08.110Z,0.50
2023-04-16T01:59:34.665Z,0.43
2023-04-16T02:02:11.167Z,0.30
2023-04-16T02:04:40.101Z,0.43
2023-04-16T02:07:07.559Z,0.50
2023-04-16T02:09:35.870Z,0.52
2023-04-16T02:12:05.999Z,0.60
2023-04-16T02:14:33.485Z,0.68
2023-04-16T02:17:00.840Z,0.40
2023-04-16T02:19:56.682Z,0.50
2023-04-16T02:22:23.622Z,1.00
2023-04-16T02:24:51.941Z,0.65
2023-04-16T02:27:18.617Z,0.70
2023-04-16T02:29:45.964Z,0.85
2023-04-16T02:32:16.530Z,0.70
2023-04-16T02:34:45.245Z,0.70
2023-04-16T02:37:14.416Z,0.52
2023-04-16T02:39:41.310Z,0.65
2023-04-16T02:42:07.906Z,0.90
2023-04-16T02:44:35.110Z,0.80
2023-04-16T02:47:01.703Z,0.88
2023-04-16T02:49:28.580Z,0.90
2023-04-16T02:51:55.208Z,0.50
2023-04-16T02:54:21.836Z,0.52
2023-04-16T02:56:48.426Z,1.00
2023-04-16T02:59:15.320Z,0.73
2023-04-16T03:01:42.022Z,0.60
2023-04-16T03:04:09.177Z,0.60
2023-04-16T03:06:35.996Z,0.77
2023-04-16T03:09:02.580Z,0.93
2023-04-16T03:11:29.182Z,0.90
2023-04-16T03:13:56.621Z,0.65
2023-04-16T03:16:23.413Z,0.80
2023-04-16T03:18:50.254Z,1.00
2023-04-16T03:21:17.104Z,0.90
2023-04-16T03:23:43.747Z,1.30
2023-04-16T03:26:10.355Z,1.08
2023-04-16T03:28:36.957Z,1.10
2023-04-16T03:31:03.732Z,0.52
2023-04-16T03:33:30.712Z,1.13
2023-04-16T03:35:58.224Z,1.05
2023-04-16T03:38:26.908Z,1.05
2023-04-16T03:40:56.155Z,0.95
2023-04-16T03:43:22.824Z,1.17
2023-04-16T03:45:49.701Z,1.20
2023-04-16T03:48:18.633Z,0.60
2023-04-16T03:50:47.467Z,0.77
2023-04-16T03:53:16.110Z,1.10
2023-04-16T03:55:43.253Z,0.80
2023-04-16T03:58:10.611Z,0.90
2023-04-16T04:00:37.232Z,1.17
2023-04-16T04:03:11.074Z,1.23
2023-04-16T04:05:41.766Z,0.90
2023-04-16T04:08:11.170Z,0.98
2023-04-16T04:10:38.296Z,0.90
2023-04-16T04:13:07.167Z,0.95
2023-04-16T04:15:34.679Z,0.65
2023-04-16T04:18:01.390Z,1.33
2023-04-16T04:20:28.191Z,1.25
2023-04-16T04:22:54.852Z,1.10
2023-04-16T04:25:24.757Z,1.70
2023-04-16T04:27:51.413Z,1.75
2023-04-16T04:30:18.027Z,1.65
2023-04-16T04:32:44.702Z,1.50
2023-04-16T04:35:11.606Z,2.25
2023-04-16T04:37:38.248Z,1.30
2023-04-16T04:40:12.723Z,1.58
2023-04-16T04:42:39.323Z,1.80
2023-04-16T04:45:06.582Z,1.45
2023-04-16T04:47:34.188Z,1.75
2023-04-16T04:50:01.040Z,1.65
2023-04-16T04:52:28.277Z,2.03
2023-04-16T04:54:55.013Z,1.50
2023-04-16T04:57:21.596Z,2.17
2023-04-16T04:59:51.167Z,1.88
2023-04-16T05:02:18.127Z,2.42
2023-04-16T05:04:44.879Z,1.42
2023-04-16T05:07:11.571Z,1.65
2023-04-16T05:09:38.258Z,1.60
2023-04-16T05:12:05.090Z,2.13
2023-04-16T05:14:31.659Z,1.83
2023-04-16T05:16:58.300Z,1.75
2023-04-16T05:19:25.013Z,2.53
2023-04-16T05:21:51.644Z,1.40
2023-04-16T05:24:18.379Z,2.22
2023-04-16T05:26:44.928Z,2.60
2023-04-16T05:29:11.600Z,1.85
2023-04-16T05:31:38.508Z,1.23
2023-04-16T05:34:05.304Z,1.85
2023-04-16T05:36:31.967Z,1.38
2023-04-16T05:38:58.510Z,1.50
2023-04-16T05:41:25.532Z,1.55
2023-04-16T05:43:52.122Z,1.50
2023-04-16T05:46:18.761Z,1.65
2023-04-16T05:48:45.374Z,2.25
2023-04-16T05:51:11.997Z,2.50
2023-04-16T05:53:38.593Z,1.65
2023-04-16T05:56:05.809Z,1.60
2023-04-16T05:58:32.381Z,2.13
2023-04-16T06:00:59.237Z,1.35
2023-04-16T06:03:25.856Z,2.13
2023-04-16T06:05:52.684Z,1.40
2023-04-16T06:08:19.453Z,1.52
2023-04-16T06:10:47.154Z,2.10
2023-04-16T06:13:13.904Z,1.70
2023-04-16T06:15:40.618Z,1.80
2023-04-16T06:18:07.245Z,1.38
2023-04-16T06:20:33.924Z,1.77
2023-04-16T06:23:00.673Z,1.90
2023-04-16T06:25:27.296Z,2.00
2023-04-16T06:27:53.840Z,1.58
2023-04-16T06:30:20.576Z,1.85
2023-04-16T06:32:48.009Z,1.77
2023-04-16T06:35:14.779Z,1.75
2023-04-16T06:37:41.556Z,2.03
2023-04-16T06:40:08.648Z,2.42
2023-04-16T06:42:35.349Z,1.90
2023-04-16T06:45:02.007Z,1.83
2023-04-16T06:47:28.703Z,2.60
2023-04-16T06:49:56.408Z,1.60
2023-04-16T06:52:23.023Z,2.50
2023-04-16T06:54:49.797Z,2.28
2023-04-16T06:57:16.448Z,2.10
2023-04-16T06:59:43.110Z,2.83
2023-04-16T07:02:10.651Z,2.10
2023-04-16T07:04:37.393Z,2.08
2023-04-16T07:07:04.087Z,1.88
2023-04-16T07:09:30.857Z,1.88
2023-04-16T07:11:57.492Z,2.22
2023-04-16T07:14:24.165Z,1.60
2023-04-16T07:16:50.748Z,2.58
2023-04-16T07:19:17.478Z,2.13
2023-04-16T07:21:44.519Z,1.83
2023-04-16T07:24:14.380Z,2.03
2023-04-16T07:26:40.989Z,1.87
2023-04-16T07:29:07.715Z,2.13
2023-04-16T07:31:34.487Z,2.28
2023-04-16T07:34:01.141Z,1.80
2023-04-16T07:36:28.401Z,1.67
2023-04-16T07:38:56.224Z,1.67
2023-04-16T07:41:23.051Z,1.52
2023-04-16T07:43:49.658Z,2.30
2023-04-16T07:46:16.418Z,2.55
2023-04-16T07:48:43.220Z,2.25
2023-04-16T07:51:09.858Z,1.92
2023-04-16T07:53:36.540Z,1.67
2023-04-16T07:56:03.104Z,2.38
2023-04-16T07:58:29.708Z,2.67
2023-04-16T08:00:56.578Z,2.17
2023-04-16T08:03:23.686Z,2.40
2023-04-16T08:05:50.381Z,2.72
2023-04-16T08:08:16.964Z,2.78
2023-04-16T08:10:43.562Z,2.95
2023-04-16T08:13:10.468Z,2.63
2023-04-16T08:15:37.336Z,2.85
2023-04-16T08:18:05.894Z,3.20
2023-04-16T08:20:33.007Z,3.25
2023-04-16T08:22:59.540Z,3.30
2023-04-16T08:25:26.146Z,2.92
2023-04-16T08:27:52.727Z,3.45
2023-04-16T08:30:19.537Z,1.92
2023-04-16T08:32:48.683Z,3.22
2023-04-16T08:35:16.674Z,2.78
2023-04-16T08:37:43.223Z,2.45
2023-04-16T08:40:10.457Z,2.45
2023-04-16T08:42:45.952Z,2.50
2023-04-16T08:45:16.743Z,2.35
2023-04-16T08:47:51.040Z,2.25
2023-04-16T08:50:24.014Z,2.70
2023-04-16T08:52:52.805Z,2.45
2023-04-16T08:55:25.423Z,1.92
2023-04-16T08:57:58.417Z,2.38
2023-04-16T09:00:25.421Z,1.98
2023-04-16T09:02:53.465Z,2.70
2023-04-16T09:05:22.851Z,2.45
2023-04-16T09:07:49.630Z,2.60
2023-04-16T09:10:16.935Z,2.53
2023-04-16T09:12:44.944Z,2.53
2023-04-16T09:15:13.029Z,2.20
2023-04-16T09:17:40.240Z,2.03
2023-04-16T09:20:12.454Z,2.22
2023-04-16T09:22:42.427Z,1.60
2023-04-16T09:25:11.018Z,2.40
2023-04-16T09:27:37.759Z,1.65
2023-04-16T09:30:27.137Z,2.45
2023-04-16T09:33:16.452Z,1.88
2023-04-16T09:35:47.713Z,2.15
2023-04-16T09:38:14.611Z,2.10
2023-04-16T09:40:41.399Z,2.10
2023-04-16T09:43:16.425Z,1.70
2023-04-16T09:45:51.358Z,2.10
2023-04-16T09:48:34.053Z,1.65
2023-04-16T09:51:01.278Z,1.80
2023-04-16T09:53:30.318Z,1.45
2023-04-16T09:56:01.203Z,1.35
2023-04-16T09:58:29.076Z,1.50
2023-04-16T10:01:01.928Z,1.00
2023-04-16T10:03:32.442Z,1.33
2023-04-16T10:08:50.748Z,1.10
2023-04-16T10:11:18.470Z,1.08
2023-04-16T10:13:45.490Z,0.93
2023-04-16T10:16:12.744Z,1.40
2023-04-16T10:18:42.237Z,1.73
2023-04-16T10:21:12.633Z,1.00
2023-04-16T10:23:40.259Z,0.90
2023-04-16T10:26:07.003Z,1.20
2023-04-16T10:28:35.411Z,1.25
2023-04-16T10:31:04.075Z,0.82
2023-04-16T10:33:33.421Z,1.15
2023-04-16T10:36:17.561Z,1.10
2023-04-16T10:38:49.972Z,1.00
2023-04-16T10:41:17.071Z,1.35
2023-04-16T10:43:45.682Z,0.98
2023-04-16T10:46:31.251Z,0.98
2023-04-16T10:49:02.602Z,1.00
2023-04-16T10:51:31.473Z,0.90
2023-04-16T10:54:03.980Z,0.82
2023-04-16T10:56:35.990Z,0.90
2023-04-16T10:59:07.369Z,1.08
2023-04-16T11:01:42.020Z,1.00
2023-04-16T11:04:21.240Z,1.35
2023-04-16T11:07:09.428Z,0.90
2023-04-16T11:09:54.226Z,1.05
2023-04-16T11:12:20.838Z,1.50
2023-04-16T11:14:49.648Z,1.63
2023-04-16T11:17:16.564Z,1.20
2023-04-16T11:19:43.738Z,1.42
2023-04-16T11:22:13.294Z,1.13
2023-04-16T11:24:40.964Z,1.23
2023-04-16T11:27:08.500Z,1.40
2023-04-16T11:29:35.860Z,1.00
2023-04-16T11:32:02.527Z,1.10
2023-04-16T11:34:29.420Z,0.77
2023-04-16T11:36:56.070Z,1.48
2023-04-16T11:39:23.119Z,0.85
2023-04-16T11:41:55.932Z,1.20
2023-04-16T11:44:27.972Z,1.08
2023-04-16T11:46:54.820Z,1.10
2023-04-16T11:49:30.742Z,0.80
2023-04-16T11:51:57.740Z,0.93
2023-04-16T11:54:26.868Z,0.82
2023-04-16T11:56:53.704Z,0.77
2023-04-16T11:59:23.192Z,0.93
2023-04-16T12:01:52.666Z,0.97
2023-04-16T12:04:21.126Z,0.73
2023-04-16T12:07:12.157Z,0.70
2023-04-16T12:09:41.479Z,0.90
2023-04-16T12:12:30.417Z,0.40
2023-04-16T12:14:59.682Z,0.80
2023-04-16T12:17:26.931Z,0.90
2023-04-16T12:19:58.878Z,1.05
2023-04-16T12:22:29.684Z,0.70
2023-04-16T12:24:58.874Z,0.77
2023-04-16T12:27:28.627Z,0.43
2023-04-16T12:30:08.057Z,0.50
2023-04-16T12:32:34.763Z,0.90
2023-04-16T12:35:01.902Z,0.80
2023-04-16T12:37:28.625Z,0.80
2023-04-16T12:39:55.239Z,1.05
2023-04-16T12:42:21.906Z,1.02
2023-04-16T12:44:48.826Z,0.70
2023-04-16T12:47:15.644Z,0.82
2023-04-16T12:49:42.339Z,0.60
2023-04-16T12:52:09.347Z,0.80
2023-04-16T12:54:36.006Z,0.60
2023-04-16T12:57:02.634Z,0.65
2023-04-16T12:59:29.254Z,0.70
2023-04-16T13:01:56.002Z,1.20
2023-04-16T13:04:25.534Z,0.80
2023-04-16T13:06:52.447Z,0.65
2023-04-16T13:09:20.233Z,0.95
2023-04-16T13:11:47.289Z,0.57
2023-04-16T13:14:13.898Z,0.88
2023-04-16T13:16:40.607Z,0.93
2023-04-16T13:19:07.215Z,0.93
2023-04-16T13:21:34.483Z,1.10
2023-04-16T13:24:01.086Z,0.85
2023-04-16T13:26:27.906Z,0.93
2023-04-16T13:28:54.590Z,1.33
2023-04-16T13:31:22.255Z,0.75
2023-04-16T13:33:48.987Z,1.10
2023-04-16T13:36:15.986Z,1.30
2023-04-16T13:38:42.560Z,1.30
2023-04-16T13:41:09.173Z,1.15
2023-04-16T14:06:02.819Z,0.82
2023-04-16T14:08:29.777Z,1.17
2023-04-16T14:10:57.689Z,1.00
2023-04-16T14:13:24.935Z,0.82
2023-04-16T14:15:54.109Z,0.98
2023-04-16T14:18:20.742Z,0.90
2023-04-16T14:20:47.670Z,0.93
2023-04-16T14:23:14.387Z,0.90
2023-04-16T14:25:41.038Z,0.95
2023-04-16T14:28:08.899Z,0.57
2023-04-16T14:30:35.576Z,0.60
2023-04-16T14:33:04.912Z,0.93
2023-04-16T14:35:32.694Z,0.70
2023-04-16T14:37:59.488Z,0.80
2023-04-16T14:40:26.396Z,0.70
2023-04-16T14:42:53.042Z,0.60
2023-04-16T14:45:19.677Z,0.70
2023-04-16T14:47:47.750Z,0.77
2023-04-16T14:50:15.772Z,0.60
2023-04-16T14:52:42.574Z,0.57
2023-04-16T14:55:09.221Z,1.17
2023-04-16T14:57:35.870Z,0.60
2023-04-16T15:00:07.454Z,0.70
2023-04-16T15:02:35.180Z,0.80
2023-04-16T15:05:02.128Z,0.60
2023-04-16T15:07:28.763Z,0.70
2023-04-16T15:09:55.765Z,0.47
2023-04-16T15:12:22.590Z,0.50
2023-04-16T15:14:49.606Z,0.50
2023-04-16T15:17:16.223Z,0.50
2023-04-16T15:19:42.926Z,0.70
2023-04-16T15:22:09.578Z,0.50
2023-04-16T15:24:36.421Z,0.73
2023-04-16T15:27:03.084Z,0.40
2023-04-16T15:29:29.710Z,0.55
2023-04-16T15:31:56.340Z,0.50
2023-04-16T15:34:22.969Z,0.52
2023-04-16T15:36:50.040Z,0.60
2023-04-16T15:39:16.847Z,0.70
2023-04-16T15:41:59.229Z,0.60
2023-04-16T15:44:27.050Z,0.50
2023-04-16T15:46:53.650Z,0.40
2023-04-16T15:49:20.213Z,0.30
2023-04-16T15:51:46.871Z,0.40
2023-04-16T15:54:13.428Z,0.50
2023-04-16T15:56:40.174Z,0.70
2023-04-16T15:59:06.782Z,0.28
2023-04-16T16:01:33.753Z,0.30
2023-04-16T16:04:07.923Z,0.47
2023-04-16T16:06:35.025Z,0.38
2023-04-16T16:09:01.744Z,0.50
2023-04-16T16:11:28.525Z,0.20
2023-04-16T16:13:55.242Z,0.20
2023-04-16T16:16:21.994Z,0.35
2023-04-16T16:18:48.768Z,0.30
2023-04-16T16:21:15.606Z,0.38
2023-04-16T16:23:42.157Z,0.32
2023-04-16T16:26:09.202Z,0.20
2023-04-16T16:28:38.640Z,0.40
2023-04-16T16:31:05.821Z,0.28
2023-04-16T16:33:33.175Z,0.40
2023-04-16T16:35:59.788Z,0.75
2023-04-16T16:38:27.027Z,0.40
2023-04-16T16:40:53.595Z,0.38
2023-04-16T16:43:20.396Z,0.30
2023-04-16T16:45:47.200Z,0.60
2023-04-16T16:48:13.919Z,0.63
2023-04-16T16:50:40.571Z,0.40
2023-04-16T16:53:07.448Z,0.50
2023-04-16T16:55:35.500Z,0.68
2023-04-16T16:58:02.258Z,0.35
2023-04-16T17:00:29.006Z,0.57
2023-04-16T17:02:55.818Z,0.38
2023-04-16T17:05:22.477Z,0.43
2023-04-16T17:07:49.103Z,0.70
2023-04-16T17:10:21.667Z,0.50
2023-04-16T17:12:49.402Z,0.57
2023-04-16T17:15:18.493Z,0.85
2023-04-16T17:17:46.380Z,1.10
2023-04-16T17:20:13.030Z,0.47
2023-04-16T17:22:40.473Z,0.82
2023-04-16T17:25:08.195Z,0.57
2023-04-16T17:27:35.305Z,0.73
2023-04-16T17:30:03.052Z,0.75
2023-04-16T17:32:32.508Z,1.08
2023-04-16T17:35:00.409Z,0.55
2023-04-16T17:37:28.580Z,0.77
2023-04-16T17:39:55.460Z,0.60
2023-04-16T17:42:22.084Z,0.80
2023-04-16T17:44:48.679Z,1.00
2023-04-16T17:47:16.517Z,0.98
2023-04-16T17:49:44.264Z,1.00
2023-04-16T17:52:10.877Z,1.20
2023-04-16T17:54:37.414Z,1.17
2023-04-16T17:57:04.760Z,1.27
2023-04-16T17:59:31.447Z,1.58
2023-04-16T18:01:58.188Z,1.48
2023-04-16T18:04:25.080Z,1.55
2023-04-16T18:06:51.721Z,2.17
2023-04-16T18:09:19.433Z,1.70
2023-04-16T18:11:46.063Z,2.63
2023-04-16T18:14:16.609Z,1.75
2023-04-16T18:16:43.266Z,2.08
2023-04-16T18:19:09.887Z,2.05
2023-04-16T18:21:36.470Z,2.17
2023-04-16T18:24:03.486Z,1.30
2023-04-16T18:26:30.206Z,1.23
2023-04-16T18:28:56.991Z,0.98
2023-04-16T18:31:23.701Z,0.60
2023-04-16T18:33:57.470Z,0.60
2023-04-16T18:36:26.488Z,0.60
2023-04-16T18:39:01.680Z,0.45
2023-04-16T18:41:29.657Z,0.65
2023-04-16T18:43:56.424Z,0.55
2023-04-16T18:46:23.097Z,0.32
2023-04-16T18:48:49.840Z,0.30
2023-04-16T18:51:16.823Z,0.30
2023-04-16T18:53:45.478Z,0.50
2023-04-16T18:56:12.464Z,0.52
2023-04-16T18:58:39.737Z,0.50
2023-04-16T19:01:11.014Z,0.68
2023-04-16T19:03:38.205Z,0.43
2023-04-16T19:06:05.872Z,0.82
2023-04-16T19:08:32.437Z,0.47
2023-04-16T19:10:59.015Z,0.40
2023-04-16T19:13:25.546Z,0.52
2023-04-16T19:15:56.983Z,0.20
2023-04-16T19:18:23.787Z,0.25
2023-04-16T19:20:50.598Z,0.50
2023-04-16T19:23:17.354Z,0.30
2023-04-16T19:25:43.942Z,1.10
2023-04-16T19:28:10.486Z,0.30
2023-04-16T19:30:37.179Z,0.50
2023-04-16T19:33:03.831Z,0.43
2023-04-16T19:35:30.630Z,0.70
2023-04-16T19:37:58.026Z,0.57
2023-04-16T19:40:24.663Z,0.55
2023-04-16T19:42:51.284Z,0.60
2023-04-16T19:45:18.346Z,0.50
2023-04-16T19:47:45.031Z,0.50
2023-04-16T19:50:11.802Z,0.50
2023-04-16T19:52:39.102Z,0.30
2023-04-16T19:55:06.922Z,0.50
2023-04-16T19:57:33.613Z,0.63
2023-04-16T20:00:00.357Z,0.40
2023-04-16T20:02:27.257Z,0.40
2023-04-16T20:04:54.046Z,0.45
2023-04-16T20:07:20.707Z,0.43
2023-04-16T20:09:47.522Z,0.70
2023-04-16T20:12:14.419Z,0.50
2023-04-16T20:14:41.867Z,1.00
2023-04-16T20:17:10.043Z,0.63
2023-04-16T20:19:40.776Z,0.60
2023-04-16T20:22:07.359Z,0.30
2023-04-16T20:24:34.297Z,0.57
2023-04-16T20:27:01.743Z,0.80
2023-04-16T20:29:28.372Z,0.50
2023-04-16T20:31:55.022Z,0.60
2023-04-16T20:34:21.568Z,0.50
2023-04-16T20:36:48.138Z,0.68
2023-04-16T20:39:20.116Z,0.70
2023-04-16T20:41:56.359Z,0.25
2023-04-16T20:44:26.317Z,0.35
2023-04-16T20:46:55.506Z,0.60
2023-04-16T20:49:22.128Z,0.85
2023-04-16T20:51:48.815Z,0.57
2023-04-16T20:54:15.639Z,0.65
2023-04-16T20:56:43.288Z,0.50
2023-04-16T20:59:10.676Z,1.55
2023-04-16T21:01:37.477Z,0.40
2023-04-16T21:04:04.443Z,0.60
2023-04-16T21:06:32.918Z,0.43
2023-04-16T21:08:59.564Z,1.02
2023-04-16T21:11:26.237Z,1.23
2023-04-16T21:13:52.805Z,0.77
2023-04-16T21:16:19.457Z,0.70
2023-04-16T21:18:46.144Z,0.60
2023-04-16T21:21:12.726Z,0.68
2023-04-16T21:23:39.365Z,0.52
2023-04-16T21:26:06.083Z,0.98
2023-04-16T21:28:32.655Z,0.95
2023-04-16T21:30:59.477Z,0.70
2023-04-16T21:33:26.112Z,0.70
2023-04-16T21:35:53.613Z,0.82
2023-04-16T21:38:21.201Z,0.70
2023-04-16T21:40:54.063Z,0.95
2023-04-16T21:43:20.826Z,0.95
2023-04-16T21:45:47.594Z,1.13
2023-04-16T21:48:14.428Z,0.80
2023-04-16T21:50:40.956Z,1.02
2023-04-16T21:53:07.559Z,1.00
2023-04-16T21:55:34.751Z,1.08
2023-04-16T21:58:04.373Z,1.42
2023-04-16T22:00:30.938Z,1.17
2023-04-16T22:03:00.032Z,0.98
2023-04-16T22:05:26.852Z,1.10
2023-04-16T22:07:53.422Z,1.00
2023-04-16T22:10:20.313Z,0.90
2023-04-16T22:12:46.882Z,1.10
2023-04-16T22:15:13.907Z,1.17
2023-04-16T22:17:41.026Z,0.88
2023-04-16T22:20:14.514Z,1.33
2023-04-16T22:22:42.161Z,1.25
2023-04-16T22:25:09.746Z,1.30
2023-04-16T22:27:36.774Z,0.85
2023-04-16T22:30:04.062Z,0.95
2023-04-16T22:32:30.939Z,1.00
2023-04-16T22:34:57.665Z,1.02
2023-04-16T22:37:24.604Z,1.10
2023-04-16T22:39:51.258Z,1.25
2023-04-16T22:42:17.817Z,0.68
2023-04-16T22:44:44.389Z,1.08
2023-04-16T22:47:10.998Z,1.00
2023-04-16T22:49:37.600Z,1.20
2023-04-16T22:52:04.318Z,0.77
2023-04-16T22:54:31.885Z,1.13
2023-04-16T22:56:58.715Z,1.02
2023-04-16T22:59:25.865Z,0.90
2023-04-16T23:01:52.970Z,1.13
2023-04-16T23:04:19.817Z,1.45
2023-04-16T23:06:46.739Z,1.30
2023-04-16T23:09:13.523Z,1.00
2023-04-16T23:11:40.562Z,0.90
2023-04-16T23:14:08.245Z,1.15
2023-04-16T23:16:34.975Z,1.00
2023-04-16T23:19:01.638Z,1.08
2023-04-16T23:21:28.213Z,0.98
2023-04-16T23:23:55.664Z,1.13
2023-04-16T23:26:22.233Z,1.30
2023-04-16T23:28:48.784Z,0.90
2023-04-16T23:31:15.466Z,0.98
2023-04-16T23:33:42.103Z,1.20
2023-04-16T23:36:09.202Z,1.25
2023-04-16T23:38:35.795Z,0.82
2023-04-16T23:41:02.379Z,1.00
2023-04-16T23:43:28.922Z,1.55
2023-04-16T23:45:55.681Z,1.02
2023-04-16T23:48:22.375Z,1.35
2023-04-16T23:50:48.958Z,0.80
2023-04-16T23:53:15.676Z,1.10
2023-04-16T23:55:42.216Z,1.27
2023-04-16T23:58:08.740Z,1.15
